createdAt,value
2018-09-11T00:00:26.398Z,41.92
2018-09-11T00:02:55.940Z,42.24
2018-09-11T00:05:25.448Z,42.36
2018-09-11T00:07:55.005Z,42.38
2018-09-11T00:10:24.575Z,42.84
2018-09-11T00:12:54.202Z,42.67
2018-09-11T00:15:23.834Z,42.41
2018-09-11T00:17:53.371Z,41.78
2018-09-11T00:20:22.917Z,42.43
2018-09-11T00:22:52.453Z,42.48
2018-09-11T00:25:21.998Z,42.34
2018-09-11T00:27:51.596Z,42.25
2018-09-11T00:30:21.236Z,42.05
2018-09-11T00:32:50.813Z,42.01
2018-09-11T00:35:20.411Z,41.98
2018-09-11T00:37:50.071Z,42.69
2018-09-11T00:40:19.582Z,41.90
2018-09-11T00:42:49.180Z,42.66
2018-09-11T00:45:18.799Z,42.71
2018-09-11T00:47:48.389Z,42.15
2018-09-11T00:50:17.911Z,41.99
2018-09-11T00:52:47.459Z,43.01
2018-09-11T00:55:17.056Z,42.21
2018-09-11T00:57:46.656Z,42.83
2018-09-11T01:00:16.148Z,42.62
2018-09-11T01:02:45.736Z,42.31
2018-09-11T01:05:15.375Z,42.76
2018-09-11T01:07:44.896Z,41.97
2018-09-11T01:10:14.571Z,42.42
2018-09-11T01:12:44.060Z,42.92
2018-09-11T01:15:13.596Z,42.09
2018-09-11T01:17:43.091Z,42.31
2018-09-11T01:20:12.590Z,42.23
2018-09-11T01:22:42.083Z,42.56
2018-09-11T01:25:11.625Z,42.49
2018-09-11T01:27:41.144Z,42.20
2018-09-11T01:30:10.680Z,43.13
2018-09-11T01:32:40.236Z,42.72
2018-09-11T01:35:09.788Z,42.65
2018-09-11T01:37:39.252Z,43.04
2018-09-11T01:40:08.828Z,42.80
2018-09-11T01:42:38.383Z,43.41
2018-09-11T01:45:08.365Z,42.78
2018-09-11T01:47:37.960Z,42.95
2018-09-11T01:50:07.660Z,42.71
2018-09-11T01:52:37.226Z,42.46
2018-09-11T01:55:06.839Z,42.61
2018-09-11T01:57:36.367Z,42.77
2018-09-11T02:00:06.259Z,42.78
2018-09-11T02:02:35.825Z,43.32
2018-09-11T02:05:05.452Z,43.10
2018-09-11T02:07:35.036Z,43.28
2018-09-11T02:10:04.665Z,43.14
2018-09-11T02:12:34.193Z,42.85
2018-09-11T02:15:04.066Z,43.51
2018-09-11T02:17:33.750Z,43.14
2018-09-11T02:20:03.356Z,43.63
2018-09-11T02:22:32.922Z,43.56
2018-09-11T02:25:02.409Z,43.85
2018-09-11T02:27:31.949Z,44.29
2018-09-11T02:30:01.487Z,43.55
2018-09-11T02:32:31.025Z,44.07
2018-09-11T02:35:00.570Z,44.31
2018-09-11T02:37:30.163Z,44.03
2018-09-11T02:39:59.714Z,44.51
2018-09-11T02:42:29.223Z,44.48
2018-09-11T02:44:58.759Z,45.06
2018-09-11T02:47:28.308Z,44.36
2018-09-11T02:49:57.808Z,44.18
2018-09-11T02:52:27.307Z,45.50
2018-09-11T02:54:56.950Z,44.55
2018-09-11T02:57:26.439Z,44.82
2018-09-11T02:59:55.972Z,44.03
2018-09-11T03:02:25.546Z,44.89
2018-09-11T03:04:55.083Z,44.69
2018-09-11T03:07:24.653Z,44.88
2018-09-11T03:09:54.243Z,45.30
2018-09-11T03:12:23.782Z,44.26
2018-09-11T03:14:53.396Z,45.21
2018-09-11T03:17:22.977Z,45.69
2018-09-11T03:19:52.578Z,45.10
2018-09-11T03:22:22.109Z,45.18
2018-09-11T03:24:51.683Z,45.00
2018-09-11T03:27:21.230Z,45.87
2018-09-11T03:29:50.780Z,44.86
2018-09-11T03:32:20.302Z,45.40
2018-09-11T03:34:49.872Z,45.56
2018-09-11T03:37:19.419Z,45.66
2018-09-11T03:39:49.085Z,46.08
2018-09-11T03:42:18.639Z,45.55
2018-09-11T03:44:48.162Z,46.07
2018-09-11T03:47:17.760Z,45.55
2018-09-11T03:49:47.375Z,46.60
2018-09-11T03:52:16.889Z,46.51
2018-09-11T03:54:46.429Z,46.07
2018-09-11T03:57:15.942Z,46.35
2018-09-11T03:59:45.506Z,46.27
2018-09-11T04:02:15.095Z,46.72
2018-09-11T04:04:44.644Z,46.47
2018-09-11T04:07:14.245Z,45.59
2018-09-11T04:09:43.847Z,45.86
2018-09-11T04:12:13.436Z,45.98
2018-09-11T04:14:42.930Z,46.19
2018-09-11T04:17:12.419Z,45.46
2018-09-11T04:19:41.963Z,45.70
2018-09-11T04:22:11.462Z,45.81
2018-09-11T04:24:40.987Z,45.71
2018-09-11T04:27:10.591Z,45.17
2018-09-11T04:29:40.111Z,45.41
2018-09-11T04:32:09.709Z,45.31
2018-09-11T04:34:39.207Z,44.69
2018-09-11T04:37:08.756Z,44.73
2018-09-11T04:39:38.269Z,44.25
2018-09-11T04:42:07.956Z,43.40
2018-09-11T04:44:37.536Z,43.79
2018-09-11T04:47:07.250Z,43.24
2018-09-11T04:49:36.734Z,42.43
2018-09-11T04:52:06.352Z,41.82
2018-09-11T04:54:35.945Z,42.73
2018-09-11T04:57:05.709Z,42.08
2018-09-11T04:59:35.982Z,41.57
2018-09-11T05:02:05.630Z,41.20
2018-09-11T05:04:36.728Z,41.33
2018-09-11T05:07:08.906Z,41.23
2018-09-11T05:09:38.932Z,40.33
2018-09-11T05:12:18.023Z,40.06
2018-09-11T05:15:04.318Z,39.98
2018-09-11T05:17:42.719Z,39.37
2018-09-11T05:20:13.870Z,38.78
2018-09-11T05:22:46.630Z,38.96
2018-09-11T05:25:24.828Z,39.03
2018-09-11T05:28:05.614Z,38.67
2018-09-11T05:30:42.070Z,38.33
2018-09-11T05:33:15.715Z,39.04
2018-09-11T05:35:45.717Z,38.05
2018-09-11T05:38:20.519Z,38.10
2018-09-11T05:40:53.027Z,37.30
2018-09-11T05:43:22.563Z,37.01
2018-09-11T05:45:55.974Z,37.55
2018-09-11T05:48:25.546Z,36.71
2018-09-11T05:50:55.284Z,36.36
2018-09-11T05:53:24.798Z,36.60
2018-09-11T05:55:54.693Z,36.43
2018-09-11T05:58:24.356Z,36.39
2018-09-11T06:00:54.033Z,36.18
2018-09-11T06:03:23.589Z,36.48
2018-09-11T06:05:53.232Z,35.83
2018-09-11T06:08:22.860Z,35.89
2018-09-11T06:10:52.527Z,36.09
2018-09-11T06:13:22.024Z,34.69
2018-09-11T06:15:51.582Z,35.32
2018-09-11T06:18:21.139Z,35.98
2018-09-11T06:20:50.748Z,35.92
2018-09-11T06:23:20.424Z,35.94
2018-09-11T06:25:50.020Z,36.28
2018-09-11T06:28:19.632Z,37.00
2018-09-11T06:30:49.246Z,36.86
2018-09-11T06:33:19.385Z,36.92
2018-09-11T06:35:48.914Z,36.77
2018-09-11T06:38:18.535Z,36.48
2018-09-11T06:40:48.370Z,35.43
2018-09-11T06:43:18.109Z,35.15
2018-09-11T06:45:47.627Z,34.39
2018-09-11T06:48:17.251Z,34.54
2018-09-11T06:50:47.067Z,34.04
2018-09-11T06:53:16.676Z,33.98
2018-09-11T06:55:46.257Z,33.92
2018-09-11T06:58:15.813Z,34.07
2018-09-11T07:00:45.546Z,34.21
2018-09-11T07:03:15.096Z,33.00
2018-09-11T07:05:44.684Z,33.45
2018-09-11T07:08:14.327Z,33.80
2018-09-11T07:10:43.908Z,32.51
2018-09-11T07:13:13.574Z,32.97
2018-09-11T07:15:43.195Z,33.87
2018-09-11T07:18:12.765Z,32.65
2018-09-11T07:20:42.362Z,32.75
2018-09-11T07:23:12.016Z,33.15
2018-09-11T07:25:41.939Z,33.58
2018-09-11T07:28:12.571Z,33.14
2018-09-11T07:30:42.080Z,32.87
2018-09-11T07:33:11.633Z,33.31
2018-09-11T07:35:41.217Z,32.88
2018-09-11T07:38:10.794Z,32.22
2018-09-11T07:40:40.306Z,33.49
2018-09-11T07:43:09.943Z,32.29
2018-09-11T07:45:39.519Z,32.38
2018-09-11T07:48:09.062Z,32.87
2018-09-11T07:50:38.664Z,32.71
2018-09-11T07:53:08.265Z,33.15
2018-09-11T07:55:38.338Z,32.23
2018-09-11T07:58:08.231Z,31.96
2018-09-11T08:00:37.760Z,32.97
2018-09-11T08:03:07.351Z,32.14
2018-09-11T08:05:36.882Z,32.00
2018-09-11T08:08:06.498Z,32.04
2018-09-11T08:10:36.054Z,31.70
2018-09-11T08:13:05.656Z,31.48
2018-09-11T08:15:35.254Z,31.53
2018-09-11T08:18:04.857Z,30.89
2018-09-11T08:20:34.413Z,31.42
2018-09-11T08:23:04.138Z,30.40
2018-09-11T08:25:33.667Z,31.15
2018-09-11T08:28:03.258Z,30.48
2018-09-11T08:30:33.420Z,31.15
2018-09-11T08:33:03.902Z,30.95
2018-09-11T08:35:33.482Z,30.98
2018-09-11T08:38:03.611Z,30.04
2018-09-11T08:40:33.111Z,29.91
2018-09-11T08:43:02.670Z,30.65
2018-09-11T08:45:32.219Z,30.74
2018-09-11T08:48:01.792Z,29.81
2018-09-11T08:50:31.358Z,29.56
2018-09-11T08:53:01.005Z,29.73
2018-09-11T08:55:30.898Z,29.61
2018-09-11T08:58:00.456Z,29.35
2018-09-11T09:00:30.020Z,29.65
2018-09-11T09:02:59.509Z,29.43
2018-09-11T09:05:29.494Z,29.20
2018-09-11T09:07:59.167Z,28.95
2018-09-11T09:10:28.888Z,28.65
2018-09-11T09:12:58.575Z,28.71
2018-09-11T09:15:28.181Z,28.83
2018-09-11T09:17:57.676Z,29.17
2018-09-11T09:20:27.249Z,29.24
2018-09-11T09:22:56.830Z,29.35
2018-09-11T09:25:26.411Z,28.48
2018-09-11T09:27:55.935Z,28.20
2018-09-11T09:30:25.492Z,28.23
2018-09-11T09:32:55.175Z,28.39
2018-09-11T09:35:24.710Z,28.14
2018-09-11T09:37:54.233Z,27.43
2018-09-11T09:40:23.940Z,27.54
2018-09-11T09:42:53.471Z,26.48
2018-09-11T09:45:23.126Z,25.78
2018-09-11T09:47:52.704Z,26.49
2018-09-11T09:50:22.342Z,25.83
2018-09-11T09:52:53.564Z,25.71
2018-09-11T09:55:23.704Z,26.59
2018-09-11T09:57:54.914Z,25.42
2018-09-11T10:00:31.026Z,26.11
2018-09-11T10:03:00.583Z,26.78
2018-09-11T10:05:30.135Z,27.57
2018-09-11T10:07:59.745Z,26.95
2018-09-11T10:10:29.303Z,27.84
2018-09-11T10:12:58.934Z,27.31
2018-09-11T10:15:28.568Z,26.79
2018-09-11T10:17:58.126Z,26.63
2018-09-11T10:20:28.615Z,27.05
2018-09-11T10:22:58.288Z,26.84
2018-09-11T10:25:27.871Z,26.73
2018-09-11T10:27:57.489Z,27.20
2018-09-11T10:30:27.050Z,26.96
2018-09-11T10:32:56.598Z,27.45
2018-09-11T10:35:26.152Z,27.23
2018-09-11T10:37:55.859Z,27.13
2018-09-11T10:40:25.427Z,27.61
2018-09-11T10:42:54.922Z,27.43
2018-09-11T10:45:24.534Z,27.61
2018-09-11T10:47:54.053Z,27.85
2018-09-11T10:50:23.651Z,27.07
2018-09-11T10:52:53.267Z,26.95
2018-09-11T10:55:22.900Z,27.88
2018-09-11T10:57:52.596Z,26.84
2018-09-11T11:00:22.224Z,26.86
2018-09-11T11:02:51.859Z,26.55
2018-09-11T11:05:21.543Z,26.20
2018-09-11T11:07:51.123Z,26.58
2018-09-11T11:10:20.738Z,26.24
2018-09-11T11:12:50.310Z,26.15
2018-09-11T11:15:19.944Z,25.85
2018-09-11T11:17:49.543Z,25.74
2018-09-11T11:20:19.130Z,26.21
2018-09-11T11:22:48.879Z,25.70
2018-09-11T11:25:18.459Z,25.79
2018-09-11T11:27:48.037Z,25.74
2018-09-11T11:30:17.720Z,25.70
2018-09-11T11:32:48.120Z,25.21
2018-09-11T11:35:19.166Z,25.05
2018-09-11T11:37:48.817Z,26.38
2018-09-11T11:40:18.419Z,26.41
2018-09-11T11:42:48.079Z,26.39
2018-09-11T11:45:17.611Z,26.29
2018-09-11T11:47:47.140Z,25.10
2018-09-11T11:50:16.741Z,25.10
2018-09-11T11:52:46.383Z,25.14
2018-09-11T11:55:16.183Z,25.00
2018-09-11T11:57:45.716Z,24.39
2018-09-11T12:00:15.319Z,23.82
2018-09-11T12:02:44.884Z,24.74
2018-09-11T12:05:14.468Z,24.60
2018-09-11T12:07:44.116Z,23.69
2018-09-11T12:10:13.736Z,23.09
2018-09-11T12:12:43.294Z,23.08
2018-09-11T12:15:12.944Z,23.06
2018-09-11T12:17:42.560Z,23.55
2018-09-11T12:20:12.086Z,23.21
2018-09-11T12:22:41.753Z,22.42
2018-09-11T12:25:11.279Z,22.42
2018-09-11T12:27:40.778Z,22.64
2018-09-11T12:30:10.384Z,21.87
2018-09-11T12:32:39.894Z,22.22
2018-09-11T12:35:09.490Z,22.65
2018-09-11T12:37:38.995Z,22.04
2018-09-11T12:40:08.723Z,23.10
2018-09-11T12:42:38.235Z,22.70
2018-09-11T12:45:07.878Z,23.09
2018-09-11T12:47:37.584Z,22.82
2018-09-11T12:50:07.167Z,22.75
2018-09-11T12:52:36.812Z,23.13
2018-09-11T12:55:06.676Z,22.52
2018-09-11T12:57:36.319Z,22.70
2018-09-11T13:00:06.636Z,22.32
2018-09-11T13:02:36.174Z,21.78
2018-09-11T13:05:05.943Z,21.95
2018-09-11T13:07:36.230Z,21.82
2018-09-11T13:10:06.064Z,22.01
2018-09-11T13:12:35.660Z,22.52
2018-09-11T13:15:05.675Z,22.76
2018-09-11T13:17:35.272Z,23.24
2018-09-11T13:20:04.963Z,23.62
2018-09-11T13:22:34.464Z,22.49
2018-09-11T13:25:04.523Z,22.57
2018-09-11T13:27:34.232Z,22.18
2018-09-11T13:30:03.964Z,22.58
2018-09-11T13:32:33.760Z,23.03
2018-09-11T13:35:03.767Z,22.77
2018-09-11T13:37:33.620Z,22.90
2018-09-11T13:40:03.144Z,23.50
2018-09-11T13:42:32.826Z,23.18
2018-09-11T13:45:02.538Z,23.57
2018-09-11T13:47:32.262Z,23.23
2018-09-11T13:50:03.919Z,24.00
2018-09-11T13:52:33.655Z,23.44
2018-09-11T13:55:03.345Z,24.16
2018-09-11T13:57:33.789Z,23.68
2018-09-11T14:00:03.531Z,23.56
2018-09-11T14:02:33.317Z,23.11
2018-09-11T14:05:02.824Z,22.92
2018-09-11T14:07:32.436Z,21.78
2018-09-11T14:10:02.041Z,22.02
2018-09-11T14:12:31.627Z,22.39
2018-09-11T14:15:01.262Z,22.20
2018-09-11T14:17:30.849Z,23.04
2018-09-11T14:20:00.449Z,22.85
2018-09-11T14:22:30.046Z,22.70
2018-09-11T14:24:59.580Z,23.44
2018-09-11T14:27:29.149Z,23.06
2018-09-11T14:29:58.731Z,23.25
2018-09-11T14:32:28.268Z,23.98
2018-09-11T14:34:57.871Z,23.16
2018-09-11T14:37:27.407Z,23.34
2018-09-11T14:39:56.966Z,22.78
2018-09-11T14:42:26.520Z,24.06
2018-09-11T14:44:56.075Z,23.47
2018-09-11T14:47:29.726Z,23.88
2018-09-11T14:49:59.378Z,23.98
2018-09-11T14:52:28.967Z,23.42
2018-09-11T14:54:58.591Z,23.68
2018-09-11T14:57:28.294Z,23.27
2018-09-11T14:59:57.850Z,22.86
2018-09-11T15:02:27.356Z,23.26
2018-09-11T15:04:56.937Z,24.00
2018-09-11T15:07:26.549Z,24.18
2018-09-11T15:09:56.182Z,24.09
2018-09-11T15:12:25.759Z,24.12
2018-09-11T15:14:55.434Z,24.35
2018-09-11T15:17:24.910Z,24.13
2018-09-11T15:19:54.455Z,24.67
2018-09-11T15:22:23.991Z,24.99
2018-09-11T15:24:53.502Z,25.47
2018-09-11T15:27:23.026Z,25.45
2018-09-11T15:29:52.599Z,25.49
2018-09-11T15:32:22.135Z,25.52
2018-09-11T15:34:51.938Z,26.37
2018-09-11T15:37:21.499Z,26.53
2018-09-11T15:39:51.100Z,26.44
2018-09-11T15:42:20.620Z,26.09
2018-09-11T15:44:50.220Z,26.36
2018-09-11T15:47:19.711Z,27.00
2018-09-11T15:49:49.259Z,26.78
2018-09-11T15:52:18.850Z,27.22
2018-09-11T15:54:48.380Z,27.07
2018-09-11T15:57:17.907Z,26.65
2018-09-11T15:59:47.381Z,26.87
2018-09-11T16:02:16.952Z,27.02
2018-09-11T16:04:46.471Z,27.65
2018-09-11T16:07:15.991Z,27.55
2018-09-11T16:09:45.510Z,27.98
2018-09-11T16:12:15.027Z,28.46
2018-09-11T16:14:44.570Z,28.45
2018-09-11T16:17:14.133Z,28.70
2018-09-11T16:19:43.701Z,27.89
2018-09-11T16:22:13.330Z,28.76
2018-09-11T16:24:42.771Z,29.08
2018-09-11T16:27:12.304Z,28.50
2018-09-11T16:29:42.110Z,28.20
2018-09-11T16:32:11.609Z,29.43
2018-09-11T16:34:41.178Z,29.61
2018-09-11T16:37:10.706Z,29.69
2018-09-11T16:39:40.192Z,29.57
2018-09-11T16:42:09.714Z,29.15
2018-09-11T16:44:39.223Z,29.50
2018-09-11T16:47:08.763Z,29.51
2018-09-11T16:49:38.295Z,29.94
2018-09-11T16:52:07.836Z,29.34
2018-09-11T16:54:37.397Z,29.96
2018-09-11T16:57:06.977Z,30.01
2018-09-11T16:59:36.476Z,30.49
2018-09-11T17:02:06.207Z,30.33
2018-09-11T17:04:35.731Z,30.58
2018-09-11T17:07:05.320Z,29.73
2018-09-11T17:09:34.872Z,30.67
2018-09-11T17:12:04.500Z,31.56
2018-09-11T17:14:34.047Z,31.85
2018-09-11T17:17:03.574Z,31.89
2018-09-11T17:19:33.107Z,32.88
2018-09-11T17:22:02.705Z,33.19
2018-09-11T17:24:32.231Z,34.01
2018-09-11T17:27:01.836Z,34.29
2018-09-11T17:29:31.367Z,34.59
2018-09-11T17:32:00.910Z,35.79
2018-09-11T17:34:30.428Z,34.87
2018-09-11T17:37:00.003Z,34.36
2018-09-11T17:39:29.588Z,34.81
2018-09-11T17:41:59.123Z,34.68
2018-09-11T17:44:28.754Z,34.82
2018-09-11T17:46:58.291Z,35.20
2018-09-11T17:49:27.802Z,35.02
2018-09-11T17:51:57.354Z,35.23
2018-09-11T17:54:26.847Z,35.51
2018-09-11T17:56:56.412Z,35.47
2018-09-11T17:59:25.968Z,35.77
2018-09-11T18:01:55.596Z,34.79
2018-09-11T18:04:25.198Z,34.95
2018-09-11T18:06:54.707Z,35.14
2018-09-11T18:09:24.270Z,35.05
2018-09-11T18:11:53.771Z,34.81
2018-09-11T18:14:23.309Z,35.15
2018-09-11T18:16:52.870Z,34.60
2018-09-11T18:19:22.358Z,34.48
2018-09-11T18:21:51.905Z,35.01
2018-09-11T18:24:21.458Z,34.81
2018-09-11T18:26:50.937Z,35.45
2018-09-11T18:29:20.896Z,34.99
2018-09-11T18:31:50.480Z,34.89
2018-09-11T18:34:20.007Z,35.57
2018-09-11T18:36:49.793Z,35.68
2018-09-11T18:39:19.401Z,35.23
2018-09-11T18:41:48.965Z,36.23
2018-09-11T18:44:18.579Z,35.71
2018-09-11T18:46:48.182Z,36.79
2018-09-11T18:49:17.735Z,36.46
2018-09-11T18:51:47.319Z,36.89
2018-09-11T18:54:16.840Z,36.86
2018-09-11T18:56:46.332Z,37.47
2018-09-11T18:59:15.875Z,36.69
2018-09-11T19:01:45.375Z,37.19
2018-09-11T19:04:14.993Z,37.85
2018-09-11T19:06:44.528Z,37.74
2018-09-11T19:09:14.132Z,37.10
2018-09-11T19:11:43.695Z,37.08
2018-09-11T19:14:13.249Z,37.84
2018-09-11T19:16:42.792Z,37.65
2018-09-11T19:19:12.304Z,37.78
2018-09-11T19:21:41.909Z,37.73
2018-09-11T19:24:11.418Z,37.81
2018-09-11T19:26:41.022Z,38.41
2018-09-11T19:29:10.491Z,38.53
2018-09-11T19:31:40.024Z,38.69
2018-09-11T19:34:09.675Z,38.27
2018-09-11T19:36:39.210Z,39.53
2018-09-11T19:39:09.227Z,39.00
2018-09-11T19:41:38.924Z,39.12
2018-09-11T19:44:08.423Z,39.51
2018-09-11T19:46:37.981Z,39.17
2018-09-11T19:49:07.572Z,38.30
2018-09-11T19:51:37.112Z,39.17
2018-09-11T19:54:06.659Z,38.46
2018-09-11T19:56:36.199Z,38.22
2018-09-11T19:59:05.757Z,38.96
2018-09-11T20:01:35.322Z,39.10
2018-09-11T20:04:04.933Z,38.73
2018-09-11T20:06:34.458Z,38.61
2018-09-11T20:09:04.915Z,39.54
2018-09-11T20:11:34.616Z,39.10
2018-09-11T20:14:04.417Z,39.47
2018-09-11T20:16:33.976Z,39.02
2018-09-11T20:19:03.744Z,39.22
2018-09-11T20:21:33.331Z,38.63
2018-09-11T20:24:02.874Z,38.83
2018-09-11T20:26:32.479Z,38.44
2018-09-11T20:29:02.218Z,38.53
2018-09-11T20:31:31.771Z,39.01
2018-09-11T20:34:01.401Z,38.46
2018-09-11T20:36:31.005Z,38.29
2018-09-11T20:39:00.512Z,38.71
2018-09-11T20:41:30.058Z,38.83
2018-09-11T20:43:59.600Z,38.24
2018-09-11T20:46:29.147Z,38.22
2018-09-11T20:49:01.807Z,38.20
2018-09-11T20:51:31.312Z,38.63
2018-09-11T20:54:00.972Z,37.82
2018-09-11T20:56:30.758Z,38.04
2018-09-11T20:59:00.792Z,38.14
2018-09-11T21:01:30.388Z,37.92
2018-09-11T21:03:59.922Z,38.22
2018-09-11T21:06:29.484Z,38.15
2018-09-11T21:08:59.030Z,38.45
2018-09-11T21:11:28.567Z,38.32
2018-09-11T21:13:58.071Z,38.67
2018-09-11T21:16:27.617Z,38.94
2018-09-11T21:18:57.171Z,38.30
2018-09-11T21:21:26.783Z,38.76
2018-09-11T21:23:56.428Z,38.38
2018-09-11T21:26:25.998Z,38.75
2018-09-11T21:28:55.526Z,38.56
2018-09-11T21:31:25.099Z,38.65
2018-09-11T21:33:54.603Z,38.93
2018-09-11T21:36:24.171Z,38.78
2018-09-11T21:38:53.679Z,38.95
2018-09-11T21:41:23.230Z,38.37
2018-09-11T21:43:52.845Z,38.53
2018-09-11T21:46:22.491Z,38.90
2018-09-11T21:48:51.953Z,38.28
2018-09-11T21:51:21.519Z,39.21
2018-09-11T21:53:51.127Z,39.16
2018-09-11T21:56:20.644Z,38.34
2018-09-11T21:58:50.191Z,38.32
2018-09-11T22:01:24.846Z,38.92
2018-09-11T22:03:54.366Z,38.41
2018-09-11T22:06:23.980Z,38.87
2018-09-11T22:08:53.468Z,38.81
2018-09-11T22:11:23.034Z,38.85
2018-09-11T22:13:52.549Z,39.30
2018-09-11T22:16:22.085Z,38.98
2018-09-11T22:18:51.817Z,39.04
2018-09-11T22:21:21.367Z,39.71
2018-09-11T22:23:50.870Z,39.03
2018-09-11T22:26:20.504Z,38.41
2018-09-11T22:28:50.056Z,38.76
2018-09-11T22:31:19.663Z,38.99
2018-09-11T22:33:49.158Z,38.72
2018-09-11T22:36:18.760Z,39.28
2018-09-11T22:38:48.290Z,39.69
2018-09-11T22:41:17.904Z,39.39
2018-09-11T22:43:47.423Z,39.13
2018-09-11T22:46:17.071Z,39.30
2018-09-11T22:48:46.667Z,38.97
2018-09-11T22:51:16.207Z,39.14
2018-09-11T22:53:45.823Z,39.31
2018-09-11T22:56:15.386Z,38.78
2018-09-11T22:58:45.315Z,39.70
2018-09-11T23:01:14.848Z,40.17
2018-09-11T23:03:44.444Z,39.36
2018-09-11T23:06:13.964Z,39.22
2018-09-11T23:08:43.456Z,40.67
2018-09-11T23:11:13.001Z,40.52
2018-09-11T23:13:42.596Z,39.47
2018-09-11T23:16:12.110Z,39.42
2018-09-11T23:18:41.671Z,39.68
2018-09-11T23:21:11.247Z,39.27
2018-09-11T23:23:40.770Z,39.58
2018-09-11T23:26:10.330Z,39.28
2018-09-11T23:28:39.915Z,40.80
2018-09-11T23:31:09.411Z,40.02
2018-09-11T23:33:39.006Z,40.90
2018-09-11T23:36:08.574Z,40.13
2018-09-11T23:38:38.125Z,40.66
2018-09-11T23:41:07.818Z,39.87
2018-09-11T23:43:37.448Z,40.04
2018-09-11T23:46:07.057Z,40.35
2018-09-11T23:48:36.545Z,40.29
2018-09-11T23:51:06.095Z,40.63
2018-09-11T23:53:35.602Z,40.04
2018-09-11T23:56:05.126Z,40.00
2018-09-11T23:58:34.657Z,40.96
